createdAt,value
2017-06-30T15:22:40.571Z,25.77
2017-06-30T15:23:39.471Z,25.72
2017-06-30T15:24:39.477Z,25.77
2017-06-30T15:25:39.469Z,25.88
2017-06-30T15:26:39.474Z,25.84
2017-06-30T15:27:39.478Z,25.8
2017-06-30T15:28:39.477Z,25.85
2017-06-30T15:29:39.170Z,25.88
2017-06-30T15:30:39.173Z,25.85
2017-06-30T15:31:39.179Z,25.8
2017-06-30T15:32:39.504Z,25.96
2017-06-30T15:33:39.511Z,25.96
2017-06-30T15:34:39.515Z,26.09
2017-06-30T15:35:39.514Z,26.05
2017-06-30T15:36:39.549Z,26.06
2017-06-30T15:37:41.206Z,25.96
2017-06-30T15:38:39.537Z,25.99
2017-06-30T15:39:39.225Z,26.02
2017-06-30T15:40:39.230Z,26.09
2017-06-30T15:41:39.257Z,26.18
2017-06-30T15:42:39.555Z,26.25
2017-06-30T15:43:39.567Z,26.25
2017-06-30T15:44:38.948Z,26.21
2017-06-30T15:45:39.564Z,26.07
2017-06-30T15:46:39.572Z,26
2017-06-30T15:47:39.576Z,26.03
2017-06-30T15:48:39.267Z,25.96
2017-06-30T15:49:39.591Z,25.96
2017-06-30T15:50:39.598Z,25.91
2017-06-30T15:51:39.301Z,25.85
2017-06-30T15:52:40.706Z,25.84
2017-06-30T15:53:39.306Z,25.85
2017-06-30T15:54:39.618Z,25.78
2017-06-30T15:55:39.619Z,25.85
2017-06-30T15:56:39.627Z,25.72
2017-06-30T15:57:39.317Z,25.77
2017-06-30T15:58:39.327Z,25.81
2017-06-30T15:59:39.329Z,25.84
2017-06-30T16:00:39.657Z,25.88
2017-06-30T16:01:39.349Z,25.84
2017-06-30T16:02:39.657Z,25.85
2017-06-30T16:03:39.674Z,25.93
2017-06-30T16:04:39.671Z,25.96
2017-06-30T16:05:39.690Z,25.96
2017-06-30T16:06:39.681Z,25.95
2017-06-30T16:07:39.064Z,26.06
2017-06-30T16:08:39.390Z,25.99
2017-06-30T16:09:39.387Z,25.98
2017-06-30T16:10:39.715Z,26.06
2017-06-30T16:11:39.715Z,26.28
2017-06-30T16:12:39.402Z,26.25
2017-06-30T16:13:39.720Z,26.29
2017-06-30T16:14:39.733Z,26.15
2017-06-30T16:15:39.768Z,26.03
2017-06-30T16:16:39.111Z,26
2017-06-30T16:17:39.771Z,25.96
2017-06-30T16:18:39.761Z,25.96
2017-06-30T16:19:39.784Z,25.93
2017-06-30T16:20:39.450Z,25.87
2017-06-30T16:21:39.143Z,25.91
2017-06-30T16:22:39.777Z,25.96
2017-06-30T16:23:39.781Z,25.88
2017-06-30T16:24:39.784Z,25.91
2017-06-30T16:25:39.787Z,26.07
2017-06-30T16:26:39.478Z,26.07
2017-06-30T16:27:39.797Z,26.18
2017-06-30T16:28:39.490Z,26.22
2017-06-30T16:29:39.810Z,26.28
2017-06-30T16:30:39.813Z,26.34
2017-06-30T16:31:39.829Z,26.31
2017-06-30T16:32:39.825Z,26.28
2017-06-30T16:33:39.526Z,26.31
2017-06-30T16:34:39.845Z,26.29
2017-06-30T16:35:39.538Z,26.31
2017-06-30T16:36:39.857Z,26.22
2017-06-30T16:37:39.882Z,26.26
2017-06-30T16:38:39.918Z,26.28
2017-06-30T16:39:39.565Z,26.28
2017-06-30T16:40:39.875Z,26.06
2017-06-30T16:41:39.571Z,25.98
2017-06-30T16:42:39.885Z,25.93
2017-06-30T16:43:39.900Z,25.84
2017-06-30T16:44:39.583Z,25.68
2017-06-30T16:45:39.590Z,25.65
2017-06-30T16:46:39.592Z,25.62
2017-06-30T16:47:39.908Z,25.51
2017-06-30T16:48:39.604Z,25.5
2017-06-30T16:49:39.922Z,25.46
2017-06-30T16:50:39.928Z,25.44
2017-06-30T16:51:39.624Z,25.38
2017-06-30T16:52:39.632Z,25.38
2017-06-30T16:53:42.934Z,25.29
2017-06-30T16:54:39.987Z,25.31
2017-06-30T16:55:39.645Z,25.29
2017-06-30T16:56:39.645Z,25.25
2017-06-30T16:57:39.655Z,25.23
2017-06-30T16:58:39.974Z,25.29
2017-06-30T16:59:39.659Z,25.16
2017-06-30T17:00:39.981Z,25.17
2017-06-30T17:01:39.986Z,25.25
2017-06-30T17:02:39.991Z,25.29
2017-06-30T17:03:39.687Z,25.23
2017-06-30T17:04:39.689Z,25.26
2017-06-30T17:05:39.694Z,25.33
2017-06-30T17:06:40.009Z,25.28
2017-06-30T17:07:39.708Z,25.23
2017-06-30T17:08:40.076Z,25.21
2017-06-30T17:09:40.047Z,25.11
2017-06-30T17:10:40.037Z,25.17
2017-06-30T17:11:39.424Z,25.08
2017-06-30T17:12:40.038Z,25.11
2017-06-30T17:13:39.733Z,25.04
2017-06-30T17:14:40.049Z,24.93
2017-06-30T17:15:39.742Z,24.98
2017-06-30T17:16:39.754Z,24.92
2017-06-30T17:17:39.754Z,24.95
2017-06-30T17:18:40.070Z,25.04
2017-06-30T17:19:40.083Z,24.91
2017-06-30T17:20:40.082Z,24.86
2017-06-30T17:21:40.092Z,24.85
2017-06-30T17:22:40.094Z,24.7
2017-06-30T17:23:39.490Z,24.65
2017-06-30T17:24:40.111Z,24.55
2017-06-30T17:25:39.803Z,24.54
2017-06-30T17:26:39.802Z,24.54
2017-06-30T17:27:40.165Z,24.39
2017-06-30T17:28:40.139Z,24.39
2017-06-30T17:29:40.138Z,24.21
2017-06-30T17:30:40.182Z,24.16
2017-06-30T17:31:40.155Z,23.99
2017-06-30T17:32:40.157Z,23.76
2017-06-30T17:33:39.836Z,23.61
2017-06-30T17:34:40.166Z,23.43
2017-06-30T17:35:40.157Z,23.41
2017-06-30T17:36:40.161Z,23.13
2017-06-30T17:37:40.161Z,23
2017-06-30T17:38:40.175Z,22.84
2017-06-30T17:39:40.222Z,22.76
2017-06-30T17:40:39.863Z,22.66
2017-06-30T17:42:05.963Z,22.69
2017-06-30T17:42:40.222Z,22.55
2017-06-30T17:43:39.893Z,22.6
2017-06-30T17:44:39.619Z,22.54
2017-06-30T17:45:39.913Z,22.6
2017-06-30T17:46:39.921Z,22.57
2017-06-30T17:47:40.279Z,22.59
2017-06-30T17:48:40.214Z,22.51
2017-06-30T17:49:39.904Z,22.62
2017-06-30T17:50:40.221Z,22.7
2017-06-30T17:51:40.227Z,22.7
2017-06-30T17:52:40.224Z,22.73
2017-06-30T17:53:40.239Z,22.69
2017-06-30T17:54:42.140Z,22.7
2017-06-30T17:55:40.244Z,22.73
2017-06-30T17:56:40.243Z,22.7
2017-06-30T17:57:39.944Z,22.65
2017-06-30T17:58:39.940Z,22.66
2017-06-30T17:59:39.940Z,22.66
2017-06-30T18:00:40.270Z,22.65
2017-06-30T18:01:40.274Z,22.59
2017-06-30T18:02:40.275Z,22.62
2017-06-30T18:03:40.280Z,22.62
2017-06-30T18:04:40.327Z,22.6
2017-06-30T18:05:39.972Z,22.63
2017-06-30T18:06:40.283Z,22.6
2017-06-30T18:07:40.287Z,22.66
2017-06-30T18:08:40.292Z,22.66
2017-06-30T18:09:40.552Z,22.69
2017-06-30T18:10:40.303Z,22.73
2017-06-30T18:11:40.005Z,22.69
2017-06-30T18:12:40.315Z,22.72
2017-06-30T18:13:40.002Z,22.73
2017-06-30T18:14:40.319Z,22.72
2017-06-30T18:15:40.324Z,22.72
2017-06-30T18:16:40.324Z,22.78
2017-06-30T18:17:40.012Z,22.8
2017-06-30T18:18:40.021Z,22.75
2017-06-30T18:19:40.340Z,22.8
2017-06-30T18:20:40.341Z,22.8
2017-06-30T20:17:38.140Z,20.07
2017-06-30T20:18:37.361Z,20.03
2017-06-30T20:19:37.738Z,20.03
2017-06-30T20:20:37.030Z,19.86
2017-06-30T20:21:37.349Z,19.84
2017-06-30T20:22:37.335Z,19.85
2017-06-30T20:23:37.355Z,19.89
2017-06-30T20:24:37.037Z,19.96
2017-06-30T20:25:37.360Z,19.82
2017-06-30T20:26:37.037Z,19.86
2017-06-30T20:27:37.036Z,19.84
2017-06-30T20:28:37.387Z,19.84
2017-06-30T20:29:37.037Z,19.79
2017-06-30T20:30:37.071Z,19.84
2017-06-30T20:31:37.424Z,19.79
2017-06-30T20:32:38.354Z,19.88
2017-06-30T20:33:37.343Z,19.81
2017-06-30T20:34:37.037Z,19.82
2017-06-30T20:35:37.035Z,19.81
2017-06-30T20:36:37.360Z,19.82
2017-06-30T20:37:37.371Z,19.81
2017-06-30T20:38:36.747Z,19.91
2017-06-30T20:39:37.368Z,19.92
2017-06-30T20:40:37.051Z,19.84
2017-06-30T20:41:37.049Z,19.89
2017-06-30T20:42:37.051Z,19.84
2017-06-30T20:43:37.380Z,19.81
2017-06-30T20:44:37.057Z,19.84
2017-06-30T20:45:37.382Z,19.91
2017-06-30T20:46:37.069Z,19.84
2017-06-30T20:47:37.387Z,19.74
2017-06-30T20:48:36.775Z,19.81
2017-06-30T20:49:37.385Z,19.69
2017-06-30T20:50:37.385Z,19.74
2017-06-30T20:51:37.080Z,19.62
2017-06-30T20:52:37.094Z,19.58
2017-06-30T20:53:37.079Z,19.63
2017-06-30T20:54:37.082Z,19.54
2017-06-30T20:55:37.394Z,19.56
2017-06-30T20:56:36.783Z,19.59
2017-06-30T20:57:37.089Z,19.64
2017-06-30T20:58:37.577Z,19.47
2017-06-30T20:59:37.102Z,19.56
2017-06-30T21:00:37.440Z,19.54
2017-06-30T21:01:37.101Z,19.58
2017-06-30T21:02:37.106Z,19.45
2017-06-30T21:03:36.961Z,19.54
2017-06-30T21:04:37.426Z,19.47
2017-06-30T21:05:37.503Z,19.41
2017-06-30T21:06:37.478Z,19.48
2017-06-30T21:07:37.177Z,19.49
2017-06-30T21:08:37.454Z,19.49
2017-06-30T21:09:37.129Z,19.49
2017-06-30T21:10:37.439Z,19.48
2017-06-30T21:11:36.811Z,19.49
2017-06-30T21:12:37.175Z,19.49
2017-06-30T21:13:37.146Z,19.51
2017-06-30T21:14:37.162Z,19.48
2017-06-30T21:15:36.825Z,19.45
2017-06-30T21:16:37.142Z,19.37
2017-06-30T21:17:37.461Z,19.34
2017-06-30T21:18:40.124Z,19.37
2017-06-30T21:19:37.474Z,19.33
2017-06-30T21:20:37.205Z,19.37
2017-06-30T21:21:37.146Z,19.24
2017-06-30T21:22:36.840Z,19.31
2017-06-30T21:23:37.573Z,19.39
2017-06-30T21:24:37.176Z,19.33
2017-06-30T21:25:37.191Z,19.34
2017-06-30T21:26:37.167Z,19.26
2017-06-30T21:27:36.867Z,19.19
2017-06-30T21:28:37.489Z,19.14
2017-06-30T21:29:37.332Z,19.24
2017-06-30T21:30:37.492Z,19.09
2017-06-30T21:31:37.182Z,19.07
2017-06-30T21:32:37.521Z,19.04
2017-06-30T21:33:37.775Z,19.07
2017-06-30T21:34:37.435Z,19.04
2017-06-30T21:35:37.199Z,19.07
2017-06-30T21:36:37.512Z,19.04
2017-06-30T21:37:36.884Z,18.99
2017-06-30T21:38:37.229Z,18.95
2017-06-30T21:39:37.517Z,18.95
2017-06-30T21:40:37.546Z,18.92
2017-06-30T21:41:37.244Z,18.9
2017-06-30T21:42:37.541Z,18.92
2017-06-30T21:43:37.217Z,18.81
2017-06-30T21:44:37.537Z,18.84
2017-06-30T21:45:37.578Z,18.78
2017-06-30T21:46:37.530Z,18.78
2017-06-30T21:47:37.580Z,18.81
2017-06-30T21:48:37.780Z,18.78
2017-06-30T21:49:37.554Z,18.68
2017-06-30T21:50:37.263Z,18.83
2017-06-30T21:51:36.936Z,18.74
2017-06-30T21:52:37.627Z,18.71
2017-06-30T21:53:37.630Z,18.66
2017-06-30T21:54:37.250Z,18.63
2017-06-30T21:55:37.264Z,18.63
2017-06-30T21:56:37.628Z,18.66
2017-06-30T21:57:37.624Z,18.59
2017-06-30T21:58:37.581Z,18.62
2017-06-30T21:59:37.270Z,18.63
2017-06-30T22:00:37.263Z,18.58
2017-06-30T22:01:37.260Z,18.56
2017-06-30T22:02:37.261Z,18.55
2017-06-30T22:03:36.941Z,18.49
2017-06-30T22:04:37.591Z,18.41
2017-06-30T22:05:37.618Z,18.41
2017-06-30T22:06:37.647Z,18.41
2017-06-30T22:07:37.596Z,18.35
2017-06-30T22:08:37.294Z,18.4
2017-06-30T22:09:37.292Z,18.34
2017-06-30T22:10:37.668Z,18.28
2017-06-30T22:11:37.631Z,18.4
2017-06-30T22:12:37.606Z,18.31
2017-06-30T22:13:36.967Z,18.28
2017-06-30T22:14:37.657Z,18.25
2017-06-30T22:15:36.968Z,18.18
2017-06-30T22:16:37.622Z,18.11
2017-06-30T22:17:37.637Z,18.16
2017-06-30T22:18:37.306Z,18.01
2017-06-30T22:19:37.328Z,18.11
2017-06-30T22:20:37.317Z,18.07
2017-06-30T22:21:37.649Z,17.97
2017-06-30T22:22:37.639Z,17.94
2017-06-30T22:23:37.335Z,17.95
2017-06-30T22:24:37.329Z,17.92
2017-06-30T22:25:37.316Z,17.94
2017-06-30T22:26:37.643Z,17.97
2017-06-30T22:27:38.271Z,17.9
2017-06-30T22:28:37.318Z,17.85
2017-06-30T22:29:37.334Z,17.94
2017-06-30T22:30:37.649Z,17.89
2017-06-30T22:31:37.641Z,17.94
2017-06-30T22:32:37.646Z,17.89
2017-06-30T22:33:37.333Z,17.97
2017-06-30T22:34:37.322Z,17.94
2017-06-30T22:35:37.013Z,17.95
2017-06-30T22:37:03.348Z,17.94
2017-06-30T22:37:37.662Z,17.87
2017-06-30T22:38:37.018Z,17.95
2017-06-30T22:39:37.340Z,17.9
2017-06-30T22:40:37.651Z,18
2017-06-30T22:41:37.349Z,18.04
2017-06-30T22:42:37.350Z,17.95
2017-06-30T22:43:37.670Z,18.05
2017-06-30T22:44:37.688Z,18.07
2017-06-30T22:45:37.343Z,18.05
2017-06-30T22:46:37.367Z,18.05
2017-06-30T22:47:37.677Z,18.03
2017-06-30T22:48:37.680Z,18.05
2017-06-30T22:49:38.176Z,18.07
2017-06-30T22:50:37.692Z,18.15
2017-06-30T22:51:37.376Z,18.19
2017-06-30T22:52:37.681Z,18.08
2017-06-30T22:53:37.365Z,18.16
2017-06-30T22:54:37.437Z,18.15
2017-06-30T22:55:37.374Z,18.13
2017-06-30T22:56:37.713Z,18.03
2017-06-30T22:57:37.373Z,18.05
2017-06-30T22:58:37.370Z,18.04
2017-06-30T22:59:37.691Z,18.08
2017-06-30T23:00:37.384Z,18.08
2017-06-30T23:01:37.391Z,18.08
2017-06-30T23:02:37.398Z,17.95
2017-06-30T23:03:37.387Z,18.05
2017-06-30T23:04:38.167Z,18.03
2017-06-30T23:05:37.721Z,18
2017-06-30T23:06:37.727Z,18.07
2017-06-30T23:07:37.401Z,18.07
2017-06-30T23:08:37.091Z,18.05
2017-06-30T23:09:37.408Z,18.04
2017-06-30T23:10:37.398Z,18.04
2017-06-30T23:11:37.093Z,17.92
2017-06-30T23:12:37.743Z,17.9
2017-06-30T23:13:37.730Z,17.9
2017-06-30T23:14:37.087Z,17.9
2017-06-30T23:15:37.093Z,17.98
2017-06-30T23:16:37.736Z,17.94
2017-06-30T23:17:37.421Z,17.94
2017-06-30T23:18:37.728Z,17.95
2017-06-30T23:19:39.758Z,17.9
2017-06-30T23:20:37.738Z,18.03
2017-06-30T23:21:37.731Z,18.04
2017-06-30T23:22:37.423Z,18.04
2017-06-30T23:23:37.425Z,18.16
2017-06-30T23:24:37.787Z,18.19
2017-06-30T23:25:37.756Z,18.1
2017-06-30T23:26:37.431Z,18.16
2017-06-30T23:27:37.425Z,18.13
2017-06-30T23:28:37.745Z,18.1
2017-06-30T23:29:37.423Z,18.22
2017-06-30T23:30:37.123Z,18.1
2017-06-30T23:31:37.433Z,18.16
2017-06-30T23:32:37.776Z,18.13
2017-06-30T23:33:37.764Z,18.03
2017-06-30T23:34:37.437Z,18.05
2017-06-30T23:35:37.497Z,17.92
2017-06-30T23:36:37.759Z,17.98
2017-06-30T23:37:37.754Z,17.87
2017-06-30T23:38:37.755Z,17.8
2017-06-30T23:39:37.456Z,17.86
2017-06-30T23:40:37.456Z,17.85
2017-06-30T23:41:37.457Z,17.76
2017-06-30T23:42:37.151Z,17.71
2017-06-30T23:43:37.459Z,17.74
2017-06-30T23:44:37.773Z,17.72
2017-06-30T23:45:37.457Z,17.72
2017-06-30T23:46:37.868Z,17.64
2017-06-30T23:47:37.463Z,17.64
2017-06-30T23:48:37.486Z,17.64
2017-06-30T23:49:37.477Z,17.63
2017-06-30T23:50:40.716Z,17.56
2017-06-30T23:51:37.468Z,17.59
2017-06-30T23:52:37.783Z,17.52
2017-06-30T23:53:37.794Z,17.51
2017-06-30T23:54:37.479Z,17.48
2017-06-30T23:55:37.784Z,17.41
2017-06-30T23:56:37.790Z,17.34
2017-06-30T23:57:37.478Z,17.31
2017-06-30T23:58:37.782Z,17.27
2017-06-30T23:59:37.782Z,17.31
